createdAt,value
2023-07-18T00:00:54.929Z,4.60
2023-07-18T00:03:59.027Z,4.15
2023-07-18T00:07:02.564Z,4.53
2023-07-18T00:10:05.386Z,4.10
2023-07-18T00:13:08.748Z,4.00
2023-07-18T00:16:11.754Z,4.03
2023-07-18T00:19:15.937Z,4.03
2023-07-18T00:22:18.796Z,4.28
2023-07-18T00:25:22.512Z,3.85
2023-07-18T00:28:25.573Z,4.00
2023-07-18T00:31:28.774Z,3.80
2023-07-18T00:34:37.436Z,3.70
2023-07-18T00:37:41.894Z,3.80
2023-07-18T00:40:49.145Z,3.75
2023-07-18T00:43:55.032Z,3.35
2023-07-18T00:46:57.572Z,3.40
2023-07-18T00:50:00.385Z,4.40
2023-07-18T00:53:03.257Z,3.97
2023-07-18T00:56:06.718Z,4.10
2023-07-18T00:59:11.824Z,3.87
2023-07-18T01:02:14.990Z,3.88
2023-07-18T01:05:19.626Z,3.97
2023-07-18T01:08:22.364Z,3.73
2023-07-18T01:11:24.824Z,3.92
2023-07-18T01:14:27.443Z,3.38
2023-07-18T01:17:31.394Z,4.03
2023-07-18T01:20:34.601Z,3.53
2023-07-18T01:23:38.958Z,4.15
2023-07-18T01:26:41.393Z,3.92
2023-07-18T01:29:45.510Z,4.10
2023-07-18T01:32:50.013Z,3.92
2023-07-18T01:35:53.136Z,4.10
2023-07-18T01:38:56.025Z,4.10
2023-07-18T01:41:58.449Z,3.85
2023-07-18T01:45:04.017Z,4.22
2023-07-18T01:48:07.669Z,4.72
2023-07-18T01:51:10.156Z,4.95
2023-07-18T01:54:12.592Z,5.10
2023-07-18T01:57:15.862Z,4.65
2023-07-18T02:00:21.514Z,5.13
2023-07-18T02:03:24.842Z,5.57
2023-07-18T02:06:28.128Z,4.80
2023-07-18T02:09:30.731Z,4.70
2023-07-18T02:12:33.769Z,4.55
2023-07-18T02:15:37.743Z,4.30
2023-07-18T02:18:40.899Z,4.60
2023-07-18T02:21:43.982Z,4.10
2023-07-18T02:24:49.589Z,4.05
2023-07-18T02:27:52.409Z,3.88
2023-07-18T02:30:56.736Z,3.90
2023-07-18T02:33:59.760Z,3.65
2023-07-18T02:37:06.023Z,3.90
2023-07-18T02:40:13.353Z,4.87
2023-07-18T02:43:16.242Z,4.38
2023-07-18T02:46:19.603Z,4.93
2023-07-18T02:49:22.021Z,5.00
2023-07-18T02:52:25.241Z,5.20
2023-07-18T02:55:31.839Z,5.82
2023-07-18T02:58:34.693Z,5.35
2023-07-18T03:01:37.362Z,4.90
2023-07-18T03:04:40.158Z,5.20
2023-07-18T03:07:43.174Z,4.68
2023-07-18T03:10:50.254Z,5.00
2023-07-18T03:13:52.836Z,5.10
2023-07-18T03:16:56.400Z,4.60
2023-07-18T03:19:59.572Z,4.63
2023-07-18T03:23:05.859Z,4.82
2023-07-18T03:26:10.247Z,4.70
2023-07-18T03:29:13.575Z,5.43
2023-07-18T03:32:16.591Z,4.23
2023-07-18T03:35:19.199Z,4.32
2023-07-18T03:38:21.755Z,4.72
2023-07-18T03:41:24.644Z,4.07
2023-07-18T03:44:27.338Z,4.63
2023-07-18T03:47:31.289Z,4.43
2023-07-18T03:50:37.163Z,5.05
2023-07-18T03:53:41.069Z,4.45
2023-07-18T03:56:43.793Z,5.20
2023-07-18T03:59:46.673Z,4.80
2023-07-18T04:02:50.660Z,4.27
2023-07-18T04:05:53.933Z,5.13
2023-07-18T04:08:56.689Z,5.60
2023-07-18T04:11:59.513Z,4.60
2023-07-18T04:15:02.117Z,5.38
2023-07-18T04:18:04.762Z,5.50
2023-07-18T04:21:08.142Z,6.00
2023-07-18T04:24:12.158Z,4.90
2023-07-18T04:27:16.551Z,5.82
2023-07-18T04:30:19.791Z,5.97
2023-07-18T04:33:22.714Z,5.37
2023-07-18T04:36:26.237Z,5.78
2023-07-18T04:39:29.053Z,5.32
2023-07-18T04:42:31.592Z,5.30
2023-07-18T04:45:34.552Z,5.22
2023-07-18T04:48:38.250Z,4.97
2023-07-18T04:51:41.991Z,4.97
2023-07-18T04:54:44.632Z,4.55
2023-07-18T04:57:47.541Z,5.00
2023-07-18T05:00:50.981Z,4.63
2023-07-18T05:03:57.882Z,4.60
2023-07-18T05:07:01.294Z,5.03
2023-07-18T05:10:04.337Z,5.00
2023-07-18T05:13:07.198Z,5.60
2023-07-18T05:16:10.334Z,5.45
2023-07-18T05:19:13.138Z,5.28
2023-07-18T05:22:15.593Z,5.05
2023-07-18T05:25:18.828Z,5.10
2023-07-18T05:28:22.790Z,5.60
2023-07-18T05:31:29.232Z,5.45
2023-07-18T05:34:34.445Z,5.63
2023-07-18T05:37:37.050Z,6.00
2023-07-18T05:40:39.465Z,5.03
2023-07-18T05:43:42.033Z,4.37
2023-07-18T05:46:45.332Z,5.13
2023-07-18T05:49:47.730Z,4.90
2023-07-18T05:52:50.525Z,4.60
2023-07-18T05:55:53.784Z,5.18
2023-07-18T05:58:56.831Z,5.10
2023-07-18T06:02:00.482Z,4.88
2023-07-18T06:05:03.568Z,3.73
2023-07-18T06:08:06.459Z,3.72
2023-07-18T06:11:09.656Z,3.88
2023-07-18T06:14:12.384Z,3.67
2023-07-18T06:17:15.218Z,4.13
2023-07-18T06:20:18.284Z,3.30
2023-07-18T06:23:21.361Z,3.83
2023-07-18T06:26:24.217Z,3.47
2023-07-18T06:29:28.021Z,3.67
2023-07-18T06:32:32.898Z,4.20
2023-07-18T06:35:36.258Z,3.60
2023-07-18T06:38:39.321Z,3.72
2023-07-18T06:41:42.260Z,3.70
2023-07-18T06:44:45.626Z,3.73
2023-07-18T06:47:48.263Z,3.85
2023-07-18T06:50:54.858Z,3.95
2023-07-18T06:53:58.511Z,3.95
2023-07-18T06:57:01.952Z,3.97
2023-07-18T07:00:07.041Z,4.30
2023-07-18T07:03:09.890Z,3.78
2023-07-18T07:06:14.126Z,3.97
2023-07-18T07:09:17.397Z,3.95
2023-07-18T07:12:34.638Z,4.45
2023-07-18T07:15:38.984Z,4.20
2023-07-18T07:18:41.396Z,3.95
2023-07-18T07:21:44.833Z,5.03
2023-07-18T07:24:48.698Z,4.30
2023-07-18T07:27:55.074Z,4.22
2023-07-18T07:30:57.674Z,3.92
2023-07-18T07:34:00.104Z,3.67
2023-07-18T07:37:02.581Z,4.23
2023-07-18T07:40:08.826Z,4.63
2023-07-18T07:43:12.136Z,4.55
2023-07-18T07:46:15.511Z,4.60
2023-07-18T07:49:19.491Z,4.43
2023-07-18T07:52:25.323Z,4.23
2023-07-18T07:55:29.215Z,4.18
2023-07-18T07:58:31.778Z,4.43
2023-07-18T08:01:34.312Z,4.00
2023-07-18T08:04:38.613Z,4.50
2023-07-18T08:07:43.117Z,4.90
2023-07-18T08:10:46.517Z,4.60
2023-07-18T08:13:49.430Z,4.87
2023-07-18T08:16:52.750Z,4.68
2023-07-18T08:19:55.479Z,4.55
2023-07-18T08:23:00.781Z,4.28
2023-07-18T08:26:04.535Z,4.47
2023-07-18T08:29:07.456Z,4.70
2023-07-18T08:32:10.274Z,4.95
2023-07-18T08:35:12.933Z,4.18
2023-07-18T08:38:16.003Z,5.20
2023-07-18T08:41:22.515Z,5.10
2023-07-18T08:44:25.697Z,5.18
2023-07-18T08:47:28.645Z,4.55
2023-07-18T08:50:32.295Z,4.77
2023-07-18T08:53:36.284Z,4.13
2023-07-18T08:56:41.614Z,4.32
2023-07-18T08:59:44.700Z,4.03
2023-07-18T09:02:50.959Z,4.00
2023-07-18T09:05:53.754Z,4.17
2023-07-18T09:08:56.464Z,4.28
2023-07-18T09:12:05.047Z,3.65
2023-07-18T09:15:08.698Z,3.97
2023-07-18T09:18:13.901Z,3.80
2023-07-18T09:21:17.534Z,3.70
2023-07-18T09:24:20.732Z,3.95
2023-07-18T09:27:24.467Z,4.60
2023-07-18T09:30:35.526Z,3.83
2023-07-18T09:33:40.924Z,3.83
2023-07-18T09:36:56.242Z,3.67
2023-07-18T09:39:58.835Z,3.92
2023-07-18T09:43:01.831Z,4.73
2023-07-18T09:46:08.199Z,3.63
2023-07-18T09:49:14.735Z,4.05
2023-07-18T09:52:24.157Z,4.43
2023-07-18T09:55:31.762Z,3.83
2023-07-18T09:58:39.467Z,3.47
2023-07-18T10:01:42.054Z,3.63
2023-07-18T10:04:46.052Z,3.38
2023-07-18T10:07:49.238Z,3.78
2023-07-18T10:11:05.688Z,4.28
2023-07-18T10:14:08.466Z,3.30
2023-07-18T10:17:11.390Z,3.97
2023-07-18T10:20:25.130Z,4.43
2023-07-18T10:23:44.590Z,3.97
2023-07-18T10:26:52.414Z,3.92
2023-07-18T10:30:10.511Z,4.00
2023-07-18T10:33:15.085Z,3.73
2023-07-18T10:36:26.853Z,3.78
2023-07-18T10:39:50.685Z,3.65
2023-07-18T10:42:53.342Z,4.10
2023-07-18T10:45:56.660Z,4.30
2023-07-18T10:48:59.306Z,4.03
2023-07-18T10:52:04.971Z,4.25
2023-07-18T10:55:08.083Z,3.88
2023-07-18T10:58:15.899Z,3.90
2023-07-18T11:01:19.664Z,4.22
2023-07-18T11:04:26.531Z,4.03
2023-07-18T11:07:34.246Z,3.60
2023-07-18T11:10:37.139Z,3.75
2023-07-18T11:13:40.693Z,3.30
2023-07-18T11:16:43.964Z,4.38
2023-07-18T11:19:48.193Z,4.17
2023-07-18T11:22:52.026Z,4.32
2023-07-18T11:25:54.777Z,4.22
2023-07-18T11:29:00.802Z,4.10
2023-07-18T11:32:04.120Z,4.00
2023-07-18T11:35:12.478Z,4.13
2023-07-18T11:38:18.866Z,3.10
2023-07-18T11:41:40.951Z,3.60
2023-07-18T11:44:45.277Z,3.30
2023-07-18T11:47:51.586Z,3.40
2023-07-18T11:50:54.362Z,3.90
2023-07-18T11:53:56.920Z,4.40
2023-07-18T11:56:59.300Z,3.57
2023-07-18T12:00:02.216Z,3.55
2023-07-18T12:03:04.852Z,3.35
2023-07-18T12:06:08.125Z,3.20
2023-07-18T12:09:12.911Z,3.30
2023-07-18T12:12:15.745Z,3.47
2023-07-18T12:15:18.615Z,3.80
2023-07-18T12:18:22.799Z,3.40
2023-07-18T12:21:25.846Z,3.85
2023-07-18T12:24:28.714Z,3.10
2023-07-18T12:27:31.486Z,3.40
2023-07-18T12:30:36.630Z,3.47
2023-07-18T12:33:39.720Z,3.92
2023-07-18T12:36:42.709Z,4.05
2023-07-18T12:39:46.179Z,4.20
2023-07-18T12:42:49.076Z,3.70
2023-07-18T12:45:51.433Z,3.67
2023-07-18T12:49:03.601Z,3.70
2023-07-18T12:52:09.268Z,3.17
2023-07-18T12:55:12.914Z,3.63
2023-07-18T12:58:16.104Z,3.63
2023-07-18T13:01:18.668Z,3.70
2023-07-18T13:04:21.107Z,3.22
2023-07-18T13:07:26.333Z,3.90
2023-07-18T13:10:30.053Z,3.83
2023-07-18T13:13:32.890Z,4.00
2023-07-18T13:16:37.974Z,4.40
2023-07-18T13:19:41.162Z,3.20
2023-07-18T13:22:43.624Z,3.73
2023-07-18T13:25:46.674Z,3.13
2023-07-18T13:28:49.614Z,4.22
2023-07-18T13:31:56.097Z,3.75
2023-07-18T13:34:59.617Z,3.30
2023-07-18T13:38:03.230Z,4.15
2023-07-18T13:41:09.536Z,4.07
2023-07-18T13:44:15.930Z,3.72
2023-07-18T13:47:18.704Z,3.77
2023-07-18T13:50:31.266Z,4.20
2023-07-18T13:53:34.342Z,3.38
2023-07-18T13:56:39.951Z,3.57
2023-07-18T13:59:45.107Z,4.00
2023-07-18T14:02:51.443Z,3.55
2023-07-18T14:05:56.172Z,3.72
2023-07-18T14:08:58.666Z,4.22
2023-07-18T14:12:02.347Z,3.90
2023-07-18T14:15:05.822Z,3.90
2023-07-18T14:18:11.292Z,3.50
2023-07-18T14:21:15.151Z,4.40
2023-07-18T14:24:19.509Z,3.60
2023-07-18T14:27:23.423Z,4.30
2023-07-18T14:30:26.580Z,3.67
2023-07-18T14:33:29.837Z,3.45
2023-07-18T14:36:33.509Z,3.70
2023-07-18T14:39:39.840Z,3.28
2023-07-18T14:42:44.957Z,3.80
2023-07-18T14:45:48.023Z,4.03
2023-07-18T14:48:50.756Z,4.17
2023-07-18T14:52:01.073Z,3.70
2023-07-18T14:55:04.037Z,3.47
2023-07-18T14:58:08.285Z,3.33
2023-07-18T15:01:11.115Z,3.75
2023-07-18T15:04:15.185Z,3.47
2023-07-18T15:07:17.599Z,3.42
2023-07-18T15:10:20.616Z,3.85
2023-07-18T15:13:23.705Z,3.40
2023-07-18T15:16:27.053Z,3.95
2023-07-18T15:19:30.296Z,3.30
2023-07-18T15:22:33.041Z,3.20
2023-07-18T15:25:36.042Z,3.20
2023-07-18T15:28:38.918Z,3.43
2023-07-18T15:31:42.027Z,3.10
2023-07-18T15:34:44.708Z,3.67
2023-07-18T15:37:47.400Z,3.33
2023-07-18T15:40:50.135Z,4.05
2023-07-18T15:43:53.637Z,3.22
2023-07-18T15:46:59.372Z,3.47
2023-07-18T15:50:02.513Z,3.50
2023-07-18T15:53:04.943Z,3.10
2023-07-18T15:56:07.416Z,3.38
2023-07-18T15:59:10.619Z,3.30
2023-07-18T16:02:15.318Z,3.75
2023-07-18T16:05:19.256Z,3.20
2023-07-18T16:08:23.650Z,3.63
2023-07-18T16:11:27.200Z,3.80
2023-07-18T16:14:30.173Z,3.30
2023-07-18T16:17:32.809Z,3.25
2023-07-18T16:20:35.727Z,3.20
2023-07-18T16:23:38.834Z,3.22
2023-07-18T16:26:41.472Z,3.17
2023-07-18T16:29:45.453Z,3.67
2023-07-18T16:32:48.672Z,2.92
2023-07-18T16:35:52.054Z,3.00
2023-07-18T16:38:54.715Z,3.95
2023-07-18T16:42:06.397Z,3.25
2023-07-18T16:45:16.681Z,3.45
2023-07-18T16:48:20.345Z,4.20
2023-07-18T16:51:22.689Z,3.30
2023-07-18T16:54:25.045Z,3.30
2023-07-18T16:57:27.659Z,3.03
2023-07-18T17:00:31.130Z,3.10
2023-07-18T17:03:34.851Z,2.95
2023-07-18T17:06:37.388Z,3.22
2023-07-18T17:09:39.840Z,2.90
2023-07-18T17:12:45.845Z,3.13
2023-07-18T17:15:52.121Z,2.80
2023-07-18T17:18:55.226Z,3.30
2023-07-18T17:21:58.675Z,2.80
2023-07-18T17:25:01.384Z,2.70
2023-07-18T17:28:04.543Z,3.53
2023-07-18T17:31:07.546Z,2.97
2023-07-18T17:34:10.270Z,3.00
2023-07-18T17:37:12.903Z,3.25
2023-07-18T17:40:15.957Z,3.30
2023-07-18T17:43:18.631Z,3.30
2023-07-18T17:46:21.108Z,3.30
2023-07-18T17:49:23.786Z,3.63
2023-07-18T17:52:26.713Z,2.63
2023-07-18T17:55:31.308Z,3.00
2023-07-18T17:58:33.848Z,3.17
2023-07-18T18:01:38.925Z,3.00
2023-07-18T18:04:41.561Z,3.30
2023-07-18T18:07:44.515Z,3.60
2023-07-18T18:10:48.143Z,3.28
2023-07-18T18:14:00.487Z,2.65
2023-07-18T18:17:04.609Z,2.72
2023-07-18T18:20:09.262Z,3.53
2023-07-18T18:23:20.462Z,2.70
2023-07-18T18:26:31.275Z,3.05
2023-07-18T18:29:34.037Z,2.97
2023-07-18T18:32:37.265Z,3.07
2023-07-18T18:35:46.294Z,2.88
2023-07-18T18:38:52.669Z,3.15
2023-07-18T18:41:56.477Z,3.30
2023-07-18T18:44:59.492Z,3.67
2023-07-18T18:48:02.375Z,3.17
2023-07-18T18:51:06.144Z,3.75
2023-07-18T18:54:17.697Z,3.60
2023-07-18T18:57:20.864Z,2.80
2023-07-18T19:00:23.739Z,2.80
2023-07-18T19:03:26.959Z,3.10
2023-07-18T19:06:29.873Z,3.20
2023-07-18T19:09:32.656Z,2.80
2023-07-18T19:12:35.540Z,3.08
2023-07-18T19:15:38.330Z,3.28
2023-07-18T19:18:40.704Z,3.10
2023-07-18T19:21:43.432Z,3.20
2023-07-18T19:24:47.104Z,3.10
2023-07-18T19:27:49.634Z,3.22
2023-07-18T19:30:52.689Z,3.72
2023-07-18T19:33:56.510Z,3.27
2023-07-18T19:36:59.410Z,3.33
2023-07-18T19:40:05.590Z,3.15
2023-07-18T19:43:08.004Z,2.92
2023-07-18T19:46:10.916Z,2.92
2023-07-18T19:49:14.046Z,2.80
2023-07-18T19:52:16.383Z,2.80
2023-07-18T19:55:18.802Z,2.83
2023-07-18T19:58:21.255Z,3.08
2023-07-18T20:01:25.625Z,2.60
2023-07-18T20:04:28.723Z,3.17
2023-07-18T20:07:32.077Z,2.25
2023-07-18T20:10:34.618Z,2.70
2023-07-18T20:13:37.208Z,2.95
2023-07-18T20:16:40.284Z,2.65
2023-07-18T20:19:45.057Z,2.45
2023-07-18T20:22:47.851Z,3.17
2023-07-18T20:25:50.578Z,2.63
2023-07-18T20:28:53.337Z,2.70
2023-07-18T20:31:56.234Z,2.70
2023-07-18T20:34:59.052Z,2.23
2023-07-18T20:38:01.703Z,3.17
2023-07-18T20:41:09.482Z,3.15
2023-07-18T20:44:18.394Z,2.38
2023-07-18T20:47:21.975Z,2.42
2023-07-18T20:50:24.646Z,2.80
2023-07-18T20:53:29.629Z,2.60
2023-07-18T20:56:32.173Z,3.10
2023-07-18T20:59:34.524Z,2.53
2023-07-18T21:02:38.637Z,2.50
2023-07-18T21:05:41.333Z,2.57
2023-07-18T21:08:44.503Z,2.60
2023-07-18T21:11:46.921Z,2.90
2023-07-18T21:14:49.454Z,2.80
2023-07-18T21:17:52.144Z,2.70
2023-07-18T21:20:54.660Z,2.40
2023-07-18T21:23:58.704Z,2.38
2023-07-18T21:27:01.890Z,2.37
2023-07-18T21:30:08.475Z,3.38
2023-07-18T21:33:11.978Z,2.38
2023-07-18T21:36:16.870Z,2.20
2023-07-18T21:39:19.349Z,2.30
2023-07-18T21:42:22.024Z,2.60
2023-07-18T21:45:24.952Z,2.45
2023-07-18T21:48:28.098Z,2.60
2023-07-18T21:51:30.626Z,2.50
2023-07-18T21:54:33.030Z,2.30
2023-07-18T21:57:35.741Z,2.50
2023-07-18T22:00:38.788Z,2.47
2023-07-18T22:03:44.814Z,2.75
2023-07-18T22:06:48.026Z,2.20
2023-07-18T22:09:52.360Z,2.08
2023-07-18T22:12:55.186Z,2.38
2023-07-18T22:15:57.718Z,2.83
2023-07-18T22:19:03.467Z,3.20
2023-07-18T22:22:06.688Z,2.70
2023-07-18T22:25:09.848Z,1.88
2023-07-18T22:28:12.849Z,2.40
2023-07-18T22:31:16.531Z,1.95
2023-07-18T22:34:19.124Z,2.40
2023-07-18T22:37:22.211Z,2.87
2023-07-18T22:40:24.817Z,3.00
2023-07-18T22:43:29.180Z,2.90
2023-07-18T22:46:32.472Z,3.03
2023-07-18T22:49:34.897Z,2.65
2023-07-18T22:52:38.169Z,3.10
2023-07-18T22:55:40.776Z,2.92
2023-07-18T22:58:45.144Z,2.97
2023-07-18T23:01:48.217Z,2.95
2023-07-18T23:04:51.252Z,2.70
2023-07-18T23:07:54.473Z,2.83
2023-07-18T23:10:57.525Z,3.00
2023-07-18T23:14:00.889Z,3.20
2023-07-18T23:17:03.762Z,2.88
2023-07-18T23:20:07.990Z,3.03
2023-07-18T23:23:10.448Z,2.63
2023-07-18T23:26:14.924Z,2.78
2023-07-18T23:29:20.892Z,2.93
2023-07-18T23:32:23.907Z,2.58
2023-07-18T23:35:26.979Z,2.92
2023-07-18T23:38:29.518Z,2.80
2023-07-18T23:41:32.092Z,2.83
2023-07-18T23:44:40.522Z,2.80
2023-07-18T23:47:43.258Z,3.20
2023-07-18T23:50:45.621Z,3.05
2023-07-18T23:53:49.269Z,2.65
2023-07-18T23:56:51.879Z,3.03
2023-07-18T23:59:54.260Z,2.70
